createdAt,value
2023-02-03T00:00:36.886Z,3.10
2023-02-03T00:03:03.693Z,4.40
2023-02-03T00:05:30.472Z,3.10
2023-02-03T00:07:57.273Z,3.10
2023-02-03T00:10:24.304Z,3.10
2023-02-03T00:12:52.787Z,3.10
2023-02-03T00:15:20.343Z,3.20
2023-02-03T00:17:47.148Z,3.20
2023-02-03T00:20:13.870Z,3.20
2023-02-03T00:22:40.656Z,3.20
2023-02-03T00:25:07.542Z,3.20
2023-02-03T00:27:34.275Z,3.20
2023-02-03T00:30:01.025Z,3.20
2023-02-03T00:32:28.545Z,3.20
2023-02-03T00:34:55.422Z,3.20
2023-02-03T00:37:23.168Z,3.30
2023-02-03T00:39:50.217Z,4.60
2023-02-03T00:42:17.093Z,3.30
2023-02-03T00:44:44.066Z,3.40
2023-02-03T00:47:10.841Z,3.40
2023-02-03T00:49:37.648Z,3.40
2023-02-03T00:52:04.528Z,3.40
2023-02-03T00:54:32.782Z,3.40
2023-02-03T00:57:00.571Z,3.40
2023-02-03T00:59:27.306Z,4.70
2023-02-03T01:01:54.106Z,3.50
2023-02-03T01:04:20.907Z,3.50
2023-02-03T01:06:47.762Z,3.50
2023-02-03T01:09:14.501Z,3.50
2023-02-03T01:11:41.363Z,3.50
2023-02-03T01:14:08.121Z,6.40
2023-02-03T01:16:38.251Z,3.50
2023-02-03T01:19:05.251Z,3.60
2023-02-03T01:21:32.173Z,3.60
2023-02-03T01:23:59.094Z,3.60
2023-02-03T01:26:25.866Z,3.60
2023-02-03T01:28:56.775Z,3.60
2023-02-03T01:31:25.585Z,3.70
2023-02-03T01:33:54.161Z,3.70
2023-02-03T01:36:22.028Z,3.70
2023-02-03T01:38:48.902Z,3.70
2023-02-03T01:41:17.595Z,3.70
2023-02-03T01:43:47.741Z,3.70
2023-02-03T01:46:37.600Z,5.70
2023-02-03T01:49:07.956Z,3.70
2023-02-03T01:51:34.766Z,3.70
2023-02-03T01:54:01.530Z,3.80
2023-02-03T01:56:29.104Z,3.80
2023-02-03T01:58:55.937Z,3.80
2023-02-03T02:01:23.175Z,3.80
2023-02-03T02:03:53.847Z,3.80
2023-02-03T02:06:20.611Z,3.80
2023-02-03T02:08:49.264Z,3.80
2023-02-03T02:11:18.622Z,3.80
2023-02-03T02:13:45.448Z,3.80
2023-02-03T02:16:15.923Z,3.80
2023-02-03T02:18:54.699Z,3.80
2023-02-03T02:21:32.310Z,3.80
2023-02-03T02:24:17.196Z,3.80
2023-02-03T02:27:08.952Z,3.80
2023-02-03T02:29:44.718Z,3.90
2023-02-03T02:32:22.839Z,3.90
2023-02-03T02:35:12.556Z,4.00
2023-02-03T02:37:58.094Z,4.00
2023-02-03T02:40:34.831Z,4.10
2023-02-03T02:43:36.853Z,4.10
2023-02-03T02:46:09.341Z,4.10
2023-02-03T02:48:39.101Z,4.10
2023-02-03T02:51:06.911Z,7.00
2023-02-03T02:53:36.461Z,4.10
2023-02-03T02:56:05.637Z,4.10
2023-02-03T02:58:32.439Z,4.10
2023-02-03T03:00:59.254Z,4.10
2023-02-03T03:03:26.107Z,4.10
2023-02-03T03:06:00.514Z,4.10
2023-02-03T03:08:33.848Z,4.10
2023-02-03T03:11:00.661Z,4.00
2023-02-03T03:13:30.012Z,4.00
2023-02-03T03:15:56.980Z,4.00
2023-02-03T03:18:36.014Z,4.00
2023-02-03T03:21:06.204Z,4.00
2023-02-03T03:23:39.382Z,3.90
2023-02-03T03:26:13.974Z,3.90
2023-02-03T03:28:52.039Z,3.90
2023-02-03T03:31:19.406Z,3.80
2023-02-03T03:33:46.336Z,3.70
2023-02-03T03:36:26.962Z,4.90
2023-02-03T03:38:59.603Z,3.60
2023-02-03T03:41:40.795Z,4.70
2023-02-03T03:44:10.957Z,3.60
2023-02-03T03:46:45.238Z,3.50
2023-02-03T03:49:12.033Z,3.50
2023-02-03T03:51:48.632Z,3.50
2023-02-03T03:54:17.072Z,3.50
2023-02-03T03:56:49.059Z,3.40
2023-02-03T03:59:16.509Z,3.50
2023-02-03T04:01:43.371Z,3.50
2023-02-03T04:04:10.669Z,3.30
2023-02-03T04:06:40.491Z,3.50
2023-02-03T04:09:07.282Z,3.50
2023-02-03T04:11:52.616Z,3.50
2023-02-03T04:14:19.384Z,3.50
2023-02-03T04:16:46.197Z,3.50
2023-02-03T04:19:12.970Z,3.60
2023-02-03T04:21:39.766Z,3.60
2023-02-03T04:24:07.056Z,3.60
2023-02-03T04:26:33.853Z,3.60
2023-02-03T04:29:00.620Z,4.20
2023-02-03T04:31:27.534Z,3.60
2023-02-03T04:33:54.394Z,3.60
2023-02-03T04:36:21.155Z,3.60
2023-02-03T04:38:49.557Z,3.60
2023-02-03T04:41:16.432Z,5.20
2023-02-03T04:43:43.304Z,3.50
2023-02-03T04:46:10.566Z,3.50
2023-02-03T04:48:37.776Z,3.50
2023-02-03T04:51:05.856Z,3.50
2023-02-03T04:53:32.979Z,3.50
2023-02-03T04:55:59.742Z,4.30
2023-02-03T04:58:27.040Z,3.50
2023-02-03T05:00:54.856Z,3.50
2023-02-03T05:03:24.053Z,3.50
2023-02-03T05:05:51.826Z,3.50
2023-02-03T05:08:18.633Z,3.50
2023-02-03T05:10:45.433Z,3.60
2023-02-03T05:13:12.251Z,3.50
2023-02-03T05:15:39.044Z,3.50
2023-02-03T05:18:05.961Z,3.50
2023-02-03T05:20:32.718Z,3.60
2023-02-03T05:22:59.597Z,3.60
2023-02-03T05:25:26.417Z,3.60
2023-02-03T05:27:53.250Z,5.10
2023-02-03T05:30:20.193Z,3.60
2023-02-03T05:32:46.987Z,3.60
2023-02-03T05:35:13.767Z,3.60
2023-02-03T05:37:40.584Z,3.60
2023-02-03T05:40:26.840Z,3.60
2023-02-03T05:42:53.876Z,3.60
2023-02-03T05:45:20.670Z,4.30
2023-02-03T05:47:47.518Z,3.70
2023-02-03T05:50:14.363Z,3.70
2023-02-03T05:52:41.204Z,3.70
2023-02-03T05:55:08.057Z,6.50
2023-02-03T05:57:35.303Z,3.80
2023-02-03T06:00:02.486Z,3.90
2023-02-03T06:02:38.400Z,3.90
2023-02-03T06:05:05.528Z,4.00
2023-02-03T06:07:32.327Z,4.00
2023-02-03T06:09:59.123Z,4.00
2023-02-03T06:12:28.195Z,4.00
2023-02-03T06:14:55.935Z,4.00
2023-02-03T06:17:22.774Z,4.10
2023-02-03T06:19:49.557Z,4.10
2023-02-03T06:22:16.410Z,4.10
2023-02-03T06:24:44.883Z,4.10
2023-02-03T06:27:11.891Z,4.10
2023-02-03T06:29:38.701Z,7.10
2023-02-03T06:32:05.628Z,5.30
2023-02-03T06:34:33.215Z,4.10
2023-02-03T06:37:00.094Z,4.10
2023-02-03T06:39:26.955Z,4.10
2023-02-03T06:41:56.272Z,4.10
2023-02-03T06:44:23.647Z,4.00
2023-02-03T06:46:50.916Z,4.00
2023-02-03T06:49:18.229Z,4.10
2023-02-03T06:51:45.852Z,6.90
2023-02-03T06:54:12.970Z,6.10
2023-02-03T06:56:39.902Z,4.10
2023-02-03T06:59:06.988Z,4.10
2023-02-03T07:01:33.916Z,4.10
2023-02-03T07:04:00.792Z,5.70
2023-02-03T07:06:30.054Z,5.40
2023-02-03T07:08:57.306Z,6.20
2023-02-03T07:11:24.417Z,4.10
2023-02-03T07:13:51.988Z,4.10
2023-02-03T07:20:45.030Z,4.10
2023-02-03T07:23:11.780Z,4.10
2023-02-03T07:25:38.707Z,4.10
2023-02-03T07:28:05.624Z,4.10
2023-02-03T07:30:32.467Z,4.10
2023-02-03T07:32:59.345Z,4.20
2023-02-03T07:35:27.158Z,4.20
2023-02-03T07:37:54.108Z,4.20
2023-02-03T07:40:20.917Z,4.20
2023-02-03T07:42:48.468Z,4.10
2023-02-03T07:45:16.233Z,4.20
2023-02-03T07:47:43.301Z,4.30
2023-02-03T07:50:13.035Z,4.30
2023-02-03T07:52:39.937Z,4.30
2023-02-03T07:55:07.111Z,4.40
2023-02-03T07:57:33.886Z,4.40
2023-02-03T08:00:00.641Z,4.40
2023-02-03T08:02:27.463Z,4.50
2023-02-03T08:04:54.302Z,4.50
2023-02-03T08:07:21.141Z,4.60
2023-02-03T08:09:47.935Z,4.60
2023-02-03T08:12:14.765Z,4.70
2023-02-03T08:14:41.524Z,4.70
2023-02-03T08:17:08.277Z,4.80
2023-02-03T08:19:35.286Z,4.80
2023-02-03T08:22:02.067Z,4.80
2023-02-03T08:28:43.893Z,4.90
2023-02-03T08:31:11.797Z,7.30
2023-02-03T08:33:38.696Z,6.00
2023-02-03T08:36:06.125Z,5.00
2023-02-03T08:38:33.136Z,5.00
2023-02-03T08:40:59.891Z,5.00
2023-02-03T08:43:26.684Z,5.10
2023-02-03T08:45:53.563Z,6.40
2023-02-03T08:48:20.519Z,5.10
2023-02-03T08:50:52.780Z,5.20
2023-02-03T08:53:19.576Z,5.20
2023-02-03T08:55:46.515Z,8.20
2023-02-03T08:58:13.293Z,5.30
2023-02-03T09:00:40.137Z,5.40
2023-02-03T09:03:06.986Z,5.40
2023-02-03T09:05:33.816Z,5.50
2023-02-03T09:08:00.603Z,5.60
2023-02-03T09:10:27.814Z,5.60
2023-02-03T09:12:54.883Z,5.60
2023-02-03T09:15:21.626Z,5.70
2023-02-03T09:17:48.443Z,5.70
2023-02-03T09:20:16.647Z,5.80
2023-02-03T09:22:43.479Z,5.80
2023-02-03T09:25:10.468Z,5.80
2023-02-03T09:27:37.348Z,5.80
2023-02-03T09:30:04.519Z,5.90
2023-02-03T09:32:31.367Z,5.90
2023-02-03T09:34:58.157Z,5.90
2023-02-03T09:37:24.948Z,6.00
2023-02-03T09:39:52.359Z,6.10
2023-02-03T09:42:32.156Z,6.20
2023-02-03T09:45:10.671Z,6.30
2023-02-03T09:47:39.566Z,6.30
2023-02-03T09:54:30.125Z,6.50
2023-02-03T09:57:00.213Z,6.60
2023-02-03T09:59:27.530Z,6.60
2023-02-03T10:02:09.504Z,6.60
2023-02-03T10:04:39.999Z,6.70
2023-02-03T10:07:17.328Z,6.70
2023-02-03T10:10:28.005Z,8.10
2023-02-03T10:13:20.914Z,6.80
2023-02-03T10:16:02.614Z,7.00
2023-02-03T10:18:34.807Z,7.10
2023-02-03T10:21:04.590Z,7.10
2023-02-03T10:23:35.691Z,7.10
2023-02-03T10:26:04.507Z,7.10
2023-02-03T10:28:33.058Z,7.10
2023-02-03T10:31:01.543Z,9.40
2023-02-03T10:33:29.748Z,9.30
2023-02-03T10:36:05.663Z,7.10
2023-02-03T10:38:48.392Z,7.10
2023-02-03T10:41:16.432Z,7.20
2023-02-03T10:43:51.371Z,9.70
2023-02-03T10:46:20.056Z,8.30
2023-02-03T10:48:46.908Z,8.40
2023-02-03T10:51:27.353Z,7.20
2023-02-03T10:53:54.217Z,7.20
2023-02-03T10:56:25.647Z,8.30
2023-02-03T10:58:56.839Z,7.20
2023-02-03T11:01:41.444Z,7.10
2023-02-03T11:04:24.153Z,7.10
2023-02-03T11:07:08.238Z,7.10
2023-02-03T11:09:40.023Z,7.10
2023-02-03T11:12:09.571Z,7.10
2023-02-03T11:14:38.126Z,7.10
2023-02-03T11:17:09.161Z,7.10
2023-02-03T11:19:37.111Z,7.10
2023-02-03T11:22:03.935Z,9.80
2023-02-03T11:24:32.545Z,7.10
2023-02-03T11:27:06.974Z,7.20
2023-02-03T11:29:34.492Z,7.20
2023-02-03T11:32:23.614Z,7.20
2023-02-03T11:34:57.209Z,7.30
2023-02-03T11:37:39.760Z,7.30
2023-02-03T11:40:12.300Z,7.30
2023-02-03T11:42:41.435Z,7.40
2023-02-03T11:45:20.408Z,7.40
2023-02-03T11:47:48.371Z,7.40
2023-02-03T11:50:33.762Z,7.40
2023-02-03T11:53:12.934Z,7.50
2023-02-03T11:56:05.747Z,8.70
2023-02-03T11:58:52.298Z,7.60
2023-02-03T12:01:34.489Z,7.70
2023-02-03T12:04:20.282Z,7.90
2023-02-03T12:07:08.836Z,8.00
2023-02-03T12:09:38.697Z,8.10
2023-02-03T12:12:57.132Z,8.20
2023-02-03T12:15:47.069Z,8.30
2023-02-03T12:18:16.151Z,8.40
2023-02-03T12:20:58.612Z,8.40
2023-02-03T12:23:48.349Z,8.40
2023-02-03T12:26:24.992Z,9.50
2023-02-03T12:29:14.801Z,9.20
2023-02-03T12:31:47.544Z,8.10
2023-02-03T12:34:41.443Z,8.00
2023-02-03T12:37:28.614Z,8.00
2023-02-03T12:40:05.101Z,9.50
2023-02-03T12:42:46.361Z,7.80
2023-02-03T12:45:21.932Z,7.80
2023-02-03T12:48:01.157Z,10.50
2023-02-03T12:50:34.421Z,7.80
2023-02-03T12:53:06.517Z,9.10
2023-02-03T12:55:41.863Z,7.80
2023-02-03T12:58:23.149Z,7.70
2023-02-03T13:01:03.754Z,7.70
2023-02-03T13:03:51.843Z,7.70
2023-02-03T13:06:32.775Z,7.70
2023-02-03T13:09:22.578Z,7.70
2023-02-03T13:11:54.277Z,7.70
2023-02-03T13:14:43.839Z,7.70
2023-02-03T13:17:19.260Z,7.70
2023-02-03T13:19:51.557Z,7.70
2023-02-03T13:22:18.387Z,7.60
2023-02-03T13:24:54.058Z,7.60
2023-02-03T13:27:36.010Z,7.50
2023-02-03T13:30:19.806Z,7.50
2023-02-03T13:32:58.756Z,7.40
2023-02-03T13:35:34.028Z,7.40
2023-02-03T13:38:24.546Z,7.40
2023-02-03T13:41:02.675Z,7.40
2023-02-03T13:43:38.704Z,7.30
2023-02-03T13:46:09.548Z,7.30
2023-02-03T13:48:36.593Z,7.30
2023-02-03T13:51:29.855Z,7.30
2023-02-03T13:54:05.489Z,7.30
2023-02-03T13:56:32.381Z,7.30
2023-02-03T13:59:14.418Z,7.30
2023-02-03T14:01:42.178Z,7.30
2023-02-03T14:04:29.578Z,8.80
2023-02-03T14:07:01.796Z,7.30
2023-02-03T14:09:31.813Z,7.30
2023-02-03T14:12:22.369Z,9.50
2023-02-03T14:14:51.899Z,7.30
2023-02-03T14:17:41.791Z,7.30
2023-02-03T14:20:27.269Z,7.30
2023-02-03T14:23:06.497Z,7.20
2023-02-03T14:25:34.171Z,7.20
2023-02-03T14:28:02.543Z,7.20
2023-02-03T14:30:29.500Z,7.20
2023-02-03T14:32:57.921Z,7.20
2023-02-03T14:35:30.618Z,7.20
2023-02-03T14:38:08.647Z,9.40
2023-02-03T14:40:55.582Z,7.10
2023-02-03T14:43:54.465Z,10.30
2023-02-03T14:46:29.507Z,7.10
2023-02-03T14:49:14.720Z,7.10
2023-02-03T14:51:56.993Z,7.10
2023-02-03T14:54:44.817Z,8.60
2023-02-03T14:57:37.584Z,8.80
2023-02-03T15:00:10.651Z,7.10
2023-02-03T15:02:37.576Z,7.10
2023-02-03T15:05:13.617Z,7.00
2023-02-03T15:07:45.538Z,7.00
2023-02-03T15:10:17.163Z,7.00
2023-02-03T15:12:45.947Z,6.90
2023-02-03T15:15:13.518Z,7.00
2023-02-03T15:17:40.326Z,6.90
2023-02-03T15:20:33.229Z,6.90
2023-02-03T15:23:00.263Z,6.90
2023-02-03T15:25:28.742Z,6.90
2023-02-03T15:28:09.723Z,6.90
2023-02-03T15:30:36.803Z,6.90
2023-02-03T15:33:14.105Z,6.90
2023-02-03T15:35:41.847Z,6.90
2023-02-03T15:38:17.641Z,6.90
2023-02-03T15:40:47.216Z,6.90
2023-02-03T15:43:13.968Z,6.90
2023-02-03T15:46:00.908Z,6.90
2023-02-03T15:48:30.925Z,6.90
2023-02-03T15:50:59.048Z,6.90
2023-02-03T15:53:45.241Z,8.70
2023-02-03T15:56:23.093Z,6.90
2023-02-03T15:58:50.054Z,9.60
2023-02-03T16:01:19.087Z,6.80
2023-02-03T16:03:52.680Z,6.80
2023-02-03T16:06:38.476Z,6.80
2023-02-03T16:09:07.037Z,6.80
2023-02-03T16:11:37.680Z,9.10
2023-02-03T16:14:07.088Z,6.80
2023-02-03T16:16:43.665Z,7.20
2023-02-03T16:19:17.690Z,6.60
2023-02-03T16:21:52.236Z,6.70
2023-02-03T16:24:40.347Z,8.70
2023-02-03T16:27:25.564Z,6.60
2023-02-03T16:30:24.201Z,6.70
2023-02-03T16:33:29.850Z,6.70
2023-02-03T16:36:15.655Z,6.70
2023-02-03T16:39:05.132Z,6.60
2023-02-03T16:41:50.570Z,7.70
2023-02-03T16:44:35.974Z,6.60
2023-02-03T16:47:21.844Z,6.60
2023-02-03T16:50:07.112Z,6.60
2023-02-03T16:52:33.909Z,6.50
2023-02-03T16:55:00.783Z,6.50
2023-02-03T16:57:27.653Z,6.50
2023-02-03T16:59:54.767Z,6.50
2023-02-03T17:02:21.662Z,6.90
2023-02-03T17:04:48.470Z,6.50
2023-02-03T17:07:15.216Z,6.50
2023-02-03T17:09:41.956Z,6.50
2023-02-03T17:12:08.793Z,6.50
2023-02-03T17:14:35.566Z,6.50
2023-02-03T17:17:02.450Z,6.50
2023-02-03T17:19:29.164Z,6.50
2023-02-03T17:21:56.063Z,6.40
2023-02-03T17:24:22.839Z,6.50
2023-02-03T17:26:50.406Z,9.00
2023-02-03T17:29:17.220Z,6.40
2023-02-03T17:31:44.028Z,6.40
2023-02-03T17:34:10.836Z,6.40
2023-02-03T17:36:37.602Z,6.50
2023-02-03T17:55:32.317Z,6.40
2023-02-03T17:57:59.430Z,6.40
2023-02-03T18:00:29.359Z,6.40
2023-02-03T18:02:57.705Z,6.30
2023-02-03T18:05:24.664Z,7.30
2023-02-03T18:07:51.466Z,7.30
2023-02-03T18:10:18.355Z,6.40
2023-02-03T18:12:45.123Z,9.00
2023-02-03T18:15:11.955Z,6.50
2023-02-03T18:17:38.800Z,6.50
2023-02-03T18:20:05.999Z,6.50
2023-02-03T18:22:34.553Z,6.50
2023-02-03T18:25:01.311Z,7.60
2023-02-03T18:27:28.084Z,9.50
2023-02-03T18:29:54.866Z,6.50
2023-02-03T18:32:22.884Z,6.50
2023-02-03T18:34:49.706Z,6.20
2023-02-03T18:37:16.555Z,6.50
2023-02-03T18:39:43.463Z,6.50
2023-02-03T18:42:10.239Z,8.00
2023-02-03T18:44:37.017Z,6.60
2023-02-03T18:47:07.581Z,6.50
2023-02-03T18:49:38.063Z,6.60
2023-02-03T18:52:05.151Z,8.80
2023-02-03T18:54:31.941Z,6.50
2023-02-03T18:56:58.966Z,6.70
2023-02-03T18:59:25.978Z,6.60
2023-02-03T19:01:52.819Z,6.60
2023-02-03T19:04:19.663Z,6.60
2023-02-03T19:11:05.785Z,6.60
2023-02-03T19:13:32.587Z,6.60
2023-02-03T19:16:01.658Z,6.60
2023-02-03T19:22:54.676Z,6.60
2023-02-03T19:25:21.460Z,6.60
2023-02-03T19:27:50.804Z,6.60
2023-02-03T19:30:17.760Z,6.50
2023-02-03T19:32:44.521Z,6.60
2023-02-03T19:35:12.618Z,8.40
2023-02-03T19:37:39.439Z,6.60
2023-02-03T19:40:06.890Z,6.60
2023-02-03T19:42:33.681Z,6.60
2023-02-03T19:45:00.441Z,6.60
2023-02-03T19:47:27.251Z,6.50
2023-02-03T19:49:54.001Z,6.80
2023-02-03T19:52:20.754Z,6.50
2023-02-03T19:54:47.474Z,6.50
2023-02-03T19:57:14.292Z,6.50
2023-02-03T19:59:41.071Z,6.50
2023-02-03T20:02:14.000Z,6.50
2023-02-03T20:04:41.703Z,6.20
2023-02-03T20:07:08.518Z,6.50
2023-02-03T20:09:35.338Z,6.50
2023-02-03T20:12:02.169Z,7.60
2023-02-03T20:14:29.060Z,6.50
2023-02-03T20:16:55.944Z,6.40
2023-02-03T20:19:22.682Z,6.50
2023-02-03T20:21:49.579Z,6.40
2023-02-03T20:24:16.896Z,6.40
2023-02-03T20:26:43.765Z,6.40
2023-02-03T20:29:10.509Z,6.40
2023-02-03T20:31:37.385Z,6.40
2023-02-03T20:34:04.210Z,6.40
2023-02-03T20:36:30.977Z,6.40
2023-02-03T20:38:57.775Z,6.40
2023-02-03T20:41:24.614Z,6.30
2023-02-03T20:43:51.382Z,7.70
2023-02-03T20:46:18.792Z,6.30
2023-02-03T20:48:45.671Z,7.90
2023-02-03T20:51:16.691Z,6.30
2023-02-03T20:53:44.333Z,6.30
2023-02-03T20:56:15.207Z,8.30
2023-02-03T20:58:43.167Z,6.30
2023-02-03T21:01:20.519Z,6.30
2023-02-03T21:04:06.009Z,6.20
2023-02-03T21:06:33.842Z,6.20
2023-02-03T21:09:20.949Z,7.30
2023-02-03T21:11:47.707Z,6.20
2023-02-03T21:14:44.194Z,6.30
2023-02-03T21:17:21.508Z,6.20
2023-02-03T21:19:48.465Z,6.20
2023-02-03T21:22:20.631Z,6.20
2023-02-03T21:24:58.093Z,6.20
2023-02-03T21:27:29.609Z,6.20
2023-02-03T21:30:01.187Z,6.20
2023-02-03T21:32:48.239Z,8.60
2023-02-03T21:35:37.132Z,6.20
2023-02-03T21:38:26.237Z,6.20
2023-02-03T21:40:53.002Z,6.20
2023-02-03T21:43:19.831Z,8.50
2023-02-03T21:45:46.596Z,6.20
2023-02-03T21:48:22.872Z,6.20
2023-02-03T21:50:49.624Z,6.20
2023-02-03T21:53:33.463Z,6.20
2023-02-03T21:56:22.767Z,6.20
2023-02-03T21:58:50.774Z,6.20
2023-02-03T22:01:18.359Z,6.20
2023-02-03T22:03:52.289Z,6.20
2023-02-03T22:06:22.699Z,6.20
2023-02-03T22:08:51.025Z,6.20
2023-02-03T22:11:18.699Z,8.70
2023-02-03T22:13:45.560Z,6.20
2023-02-03T22:16:14.193Z,6.20
2023-02-03T22:18:43.620Z,6.20
2023-02-03T22:21:10.727Z,6.20
2023-02-03T22:23:37.858Z,6.20
2023-02-03T22:26:04.714Z,6.20
2023-02-03T22:28:31.519Z,6.50
2023-02-03T22:30:58.302Z,8.30
2023-02-03T22:33:25.270Z,6.20
2023-02-03T22:35:52.102Z,6.10
2023-02-03T22:38:18.987Z,6.20
2023-02-03T22:40:45.777Z,8.40
2023-02-03T22:43:12.533Z,6.10
2023-02-03T22:45:39.310Z,8.20
2023-02-03T22:48:06.212Z,6.10
2023-02-03T22:50:36.774Z,6.20
2023-02-03T22:53:04.530Z,6.20
2023-02-03T22:55:31.485Z,6.10
2023-02-03T22:57:59.176Z,6.10
2023-02-03T23:00:26.126Z,6.10
2023-02-03T23:02:53.028Z,6.10
2023-02-03T23:05:19.951Z,6.10
2023-02-03T23:07:46.868Z,6.00
2023-02-03T23:10:18.401Z,6.00
2023-02-03T23:12:45.237Z,6.00
2023-02-03T23:15:12.070Z,6.00
2023-02-03T23:17:39.028Z,9.10
2023-02-03T23:20:06.816Z,8.80
2023-02-03T23:22:33.638Z,5.90
2023-02-03T23:25:00.398Z,5.80
2023-02-03T23:27:27.291Z,5.80
2023-02-03T23:29:54.080Z,5.80
2023-02-03T23:32:20.916Z,5.70
2023-02-03T23:35:06.489Z,5.70
2023-02-03T23:37:33.278Z,6.20
2023-02-03T23:40:00.453Z,5.70
2023-02-03T23:42:27.239Z,6.50
2023-02-03T23:44:54.072Z,5.60
2023-02-03T23:47:20.841Z,5.60
2023-02-03T23:49:47.583Z,8.60
2023-02-03T23:52:14.335Z,5.60
2023-02-03T23:54:41.070Z,5.60
2023-02-03T23:57:07.832Z,5.60
2023-02-03T23:59:34.556Z,5.60
